首页
METAR-TAF:

METAR-TAF

机场 :

Avenger Field

Sweetwater, 得克萨斯州, 美国

纬度: 32-28-02N, 经度: 100-27-59W, 海拔: 725米

当前天气观测

该预报发布于7分钟前的21:15 UTC
风速15节,风向
温度 10°C
湿度 71%
气压 1028 hPa
能見度: 16.1公里
多云层高于1800英尺

METAR: KSWW 112115Z AUTO 19015KT 10SM BKN018 10/05 A3036 RMK AO2 T01030050

时间: 15:22 (21:22 UTC)


TAF: 丢失

超过4000个机场的气象观测和天气预报(METAR&TAF报告)。

可查询的气象台以黄色和红色小点在地图上表示。

将鼠标移到小点上方,可查看气象台名称。

然后点击查看天气观测和预报。

如需切换地图:点击带黑十字的绿色按钮放大地图;点击带横线的绿色按钮缩小地图;或者点击绿色箭头查看邻近地区的地图。


METAR-TAF: